Currie, Texas
Current Conditions -  °F | °C
As of 3:35 AM on Friday 24 Oct 2014 (Local Time) from KLXY Reporting Station
Overcast Overcast  
Wind Chill: 15°   Ceiling: 7000
Heat Index: 15°   Visibility: 10mi
Dew Point: 12°   Wind: 3mph
Humidity: 85%   Direction: 140°SE
Pressure: 30.12"   Gusts: NA
Location:  31.7923°N, 96.3714°W
Report Text: KLXY 240835Z AUTO 14003KT 10SM OVC070 15/12 A3012 RMK AO2 T01490124
Loading
Personal Weather Stations






























Interactive Weather Map
Tropical Storm Tracking
New forecast layout! Learn more

10-Day Weather Forecast

Advertisements
Track Severe Weather on mobile